createdAt,value
2018-11-10T00:02:09.797Z,53.83
2018-11-10T00:04:38.427Z,55.67
2018-11-10T00:07:16.987Z,47.50
2018-11-10T00:09:45.550Z,53.93
2018-11-10T00:12:14.094Z,60.67
2018-11-10T00:14:42.608Z,55.13
2018-11-10T00:17:11.266Z,49.17
2018-11-10T00:19:39.872Z,47.00
2018-11-10T00:22:12.520Z,50.00
2018-11-10T00:24:41.078Z,47.80
2018-11-10T00:27:09.672Z,48.00
2018-11-10T00:29:38.252Z,50.27
2018-11-10T00:32:06.929Z,55.07
2018-11-10T00:34:35.533Z,51.27
2018-11-10T00:37:04.099Z,50.10
2018-11-10T00:39:39.705Z,49.10
2018-11-10T00:42:08.378Z,48.97
2018-11-10T00:44:37.021Z,50.90
2018-11-10T00:47:05.641Z,51.57
2018-11-10T00:49:34.256Z,49.43
2018-11-10T00:52:02.847Z,52.00
2018-11-10T00:54:31.554Z,57.23
2018-11-10T00:57:00.139Z,50.60
2018-11-10T00:59:28.824Z,48.43
2018-11-10T01:01:57.396Z,54.20
2018-11-10T01:04:25.922Z,48.13
2018-11-10T01:06:56.590Z,50.57
2018-11-10T01:09:25.147Z,54.67
2018-11-10T01:11:53.709Z,57.60
2018-11-10T01:14:22.231Z,49.83
2018-11-10T01:16:50.763Z,52.70
2018-11-10T01:19:19.291Z,47.80
2018-11-10T01:21:54.689Z,49.07
2018-11-10T01:24:23.312Z,52.43
2018-11-10T01:26:51.839Z,47.50
2018-11-10T01:29:20.499Z,49.80
2018-11-10T01:31:49.025Z,45.37
2018-11-10T01:34:17.706Z,38.10
2018-11-10T01:36:47.312Z,45.03
2018-11-10T01:39:15.995Z,47.33
2018-11-10T01:41:44.564Z,45.30
2018-11-10T01:44:12.817Z,46.13
2018-11-10T01:46:41.090Z,47.63
2018-11-10T01:49:09.399Z,48.03
2018-11-10T01:51:37.718Z,43.20
2018-11-10T01:54:06.104Z,43.23
2018-11-10T01:56:34.389Z,52.20
2018-11-10T01:59:02.674Z,52.17
2018-11-10T02:01:30.937Z,42.10
2018-11-10T02:03:59.215Z,47.90
2018-11-10T02:06:27.502Z,48.40
2018-11-10T02:08:55.789Z,49.63
2018-11-10T02:11:24.110Z,47.33
2018-11-10T02:13:52.409Z,46.07
2018-11-10T02:16:20.713Z,58.43
2018-11-10T02:18:49.042Z,53.33
2018-11-10T02:21:17.488Z,48.57
2018-11-10T02:23:45.841Z,51.17
2018-11-10T02:26:14.180Z,52.23
2018-11-10T02:28:42.516Z,47.27
2018-11-10T02:31:10.826Z,52.37
2018-11-10T02:33:39.141Z,52.80
2018-11-10T02:36:07.426Z,52.63
2018-11-10T02:38:35.751Z,50.87
2018-11-10T02:41:14.885Z,53.40
2018-11-10T02:43:43.210Z,61.23
2018-11-10T02:46:11.492Z,65.77
2018-11-10T02:48:39.817Z,64.93
2018-11-10T02:51:08.113Z,54.50
2018-11-10T02:53:36.416Z,58.13
2018-11-10T02:56:04.962Z,61.13
2018-11-10T02:58:33.312Z,74.03
2018-11-10T03:01:01.636Z,73.90
2018-11-10T03:03:29.960Z,65.17
2018-11-10T03:05:58.257Z,69.43
2018-11-10T03:08:26.528Z,64.17
2018-11-10T03:10:54.881Z,62.03
2018-11-10T03:13:23.091Z,68.33
2018-11-10T03:15:55.464Z,64.30
2018-11-10T03:18:23.794Z,69.43
2018-11-10T03:20:52.078Z,61.77
2018-11-10T03:23:20.354Z,60.97
2018-11-10T03:25:48.656Z,56.87
2018-11-10T03:28:16.919Z,64.63
2018-11-10T03:30:47.324Z,66.80
2018-11-10T03:33:15.605Z,63.87
2018-11-10T03:35:43.877Z,64.97
2018-11-10T03:38:12.210Z,55.80
2018-11-10T03:40:40.523Z,66.80
2018-11-10T03:43:08.884Z,58.50
2018-11-10T03:45:37.164Z,59.03
2018-11-10T03:48:05.502Z,48.73
2018-11-10T03:50:33.799Z,47.70
2018-11-10T03:53:02.115Z,52.73
2018-11-10T03:55:30.400Z,48.77
2018-11-10T03:57:58.704Z,55.13
2018-11-10T04:00:26.978Z,47.00
2018-11-10T04:02:55.270Z,45.00
2018-11-10T04:05:23.680Z,47.10
2018-11-10T04:07:51.968Z,47.53
2018-11-10T04:10:20.266Z,49.23
2018-11-10T04:12:48.584Z,48.50
2018-11-10T04:15:16.928Z,49.10
2018-11-10T04:17:45.221Z,53.73
2018-11-10T04:20:13.686Z,46.57
2018-11-10T04:22:41.961Z,51.00
2018-11-10T04:25:11.098Z,52.73
2018-11-10T04:27:39.448Z,47.10
2018-11-10T04:30:09.033Z,50.63
2018-11-10T04:32:37.568Z,46.33
2018-11-10T04:35:09.496Z,53.87
2018-11-10T04:37:37.890Z,58.30
2018-11-10T04:40:07.126Z,47.87
2018-11-10T04:42:35.428Z,54.37
2018-11-10T04:45:03.803Z,50.40
2018-11-10T04:47:32.103Z,50.77
2018-11-10T04:50:00.375Z,44.50
2018-11-10T04:52:28.652Z,47.83
2018-11-10T04:55:04.510Z,51.33
2018-11-10T04:57:32.806Z,47.00
2018-11-10T05:00:01.168Z,43.47
2018-11-10T05:02:29.461Z,41.30
2018-11-10T05:04:57.765Z,39.30
2018-11-10T05:07:26.073Z,41.43
2018-11-10T05:09:55.474Z,42.60
2018-11-10T05:12:23.754Z,45.50
2018-11-10T05:14:52.036Z,44.73
2018-11-10T05:17:20.306Z,45.53
2018-11-10T05:19:48.636Z,45.23
2018-11-10T05:22:16.940Z,41.17
2018-11-10T05:24:46.344Z,56.87
2018-11-10T05:27:14.687Z,51.70
2018-11-10T05:29:42.966Z,50.40
2018-11-10T05:32:11.346Z,49.03
2018-11-10T05:34:39.662Z,42.10
2018-11-10T05:37:07.963Z,44.20
2018-11-10T05:39:36.202Z,50.50
2018-11-10T05:42:04.569Z,49.83
2018-11-10T05:44:32.946Z,52.10
2018-11-10T05:47:01.268Z,46.73
2018-11-10T05:49:30.650Z,49.50
2018-11-10T05:51:58.964Z,54.50
2018-11-10T05:54:27.327Z,52.17
2018-11-10T05:56:55.637Z,56.03
2018-11-10T05:59:23.976Z,57.43
2018-11-10T06:01:52.281Z,55.00
2018-11-10T06:04:20.593Z,55.97
2018-11-10T06:06:48.945Z,52.40
2018-11-10T06:09:17.490Z,48.97
2018-11-10T06:11:45.795Z,45.97
2018-11-10T06:14:14.091Z,48.40
2018-11-10T06:16:42.435Z,47.03
2018-11-10T06:19:10.745Z,44.87
2018-11-10T06:21:41.061Z,39.73
2018-11-10T06:24:09.344Z,43.67
2018-11-10T06:26:37.666Z,39.10
2018-11-10T06:29:06.022Z,42.83
2018-11-10T06:31:34.318Z,45.67
2018-11-10T06:34:02.626Z,38.87
2018-11-10T06:36:30.921Z,35.57
2018-11-10T06:38:59.207Z,37.67
2018-11-10T06:41:27.611Z,41.23
2018-11-10T06:43:55.856Z,39.13
2018-11-10T06:46:24.205Z,39.83
2018-11-10T06:48:52.496Z,39.77
2018-11-10T06:51:20.810Z,37.23
2018-11-10T06:53:49.165Z,40.00
2018-11-10T06:56:17.462Z,36.57
2018-11-10T06:58:45.812Z,39.17
2018-11-10T07:01:14.168Z,37.60
2018-11-10T07:03:42.486Z,38.77
2018-11-10T07:06:10.777Z,39.80
2018-11-10T07:08:41.155Z,38.77
2018-11-10T07:11:09.450Z,37.33
2018-11-10T07:13:38.622Z,45.83
2018-11-10T07:16:06.878Z,43.90
2018-11-10T07:18:35.213Z,37.13
2018-11-10T07:21:03.499Z,42.47
2018-11-10T07:23:31.770Z,46.53
2018-11-10T07:26:00.139Z,48.63
2018-11-10T07:28:28.412Z,47.63
2018-11-10T07:30:56.720Z,51.00
2018-11-10T07:33:25.101Z,40.70
2018-11-10T07:35:53.334Z,43.70
2018-11-10T07:38:21.659Z,39.50
2018-11-10T07:40:49.971Z,44.17
2018-11-10T07:43:18.311Z,40.33
2018-11-10T07:45:46.646Z,40.20
2018-11-10T07:48:14.958Z,35.97
2018-11-10T07:50:43.252Z,38.73
2018-11-10T07:53:11.604Z,41.10
2018-11-10T07:55:39.864Z,38.60
2018-11-10T07:58:08.125Z,39.53
2018-11-10T08:00:36.353Z,43.70
2018-11-10T08:03:04.819Z,45.20
2018-11-10T08:05:33.215Z,39.20
2018-11-10T08:08:01.513Z,39.20
2018-11-10T08:10:29.835Z,41.33
2018-11-10T08:12:58.163Z,42.63
2018-11-10T08:15:26.512Z,42.80
2018-11-10T08:17:54.832Z,41.30
2018-11-10T08:20:23.081Z,36.30
2018-11-10T08:22:51.400Z,36.43
2018-11-10T08:25:19.712Z,36.70
2018-11-10T08:27:48.010Z,39.57
2018-11-10T08:30:16.327Z,35.53
2018-11-10T08:32:44.980Z,33.93
2018-11-10T08:35:14.131Z,37.60
2018-11-10T08:37:42.462Z,39.33
2018-11-10T08:40:13.579Z,41.43
2018-11-10T08:42:41.933Z,37.57
2018-11-10T08:45:11.887Z,39.00
2018-11-10T08:47:40.524Z,39.77
2018-11-10T08:50:09.868Z,38.40
2018-11-10T08:52:38.172Z,44.63
2018-11-10T08:55:07.232Z,41.00
2018-11-10T08:57:35.610Z,37.73
2018-11-10T09:00:04.227Z,33.03
2018-11-10T09:02:32.519Z,40.13
2018-11-10T09:05:00.820Z,39.37
2018-11-10T09:07:29.138Z,35.27
2018-11-10T09:09:57.484Z,36.27
2018-11-10T09:12:25.717Z,35.37
2018-11-10T09:14:56.198Z,37.43
2018-11-10T09:17:24.486Z,43.13
2018-11-10T09:19:52.786Z,48.10
2018-11-10T09:22:21.211Z,39.33
2018-11-10T09:24:49.501Z,47.70
2018-11-10T09:27:17.891Z,43.07
2018-11-10T09:29:46.244Z,43.47
2018-11-10T09:32:14.604Z,43.33
2018-11-10T09:34:42.920Z,43.87
2018-11-10T09:37:11.255Z,35.80
2018-11-10T09:39:39.623Z,40.70
2018-11-10T09:42:08.016Z,43.47
2018-11-10T09:44:36.228Z,42.43
2018-11-10T09:47:05.261Z,44.33
2018-11-10T09:49:33.507Z,36.20
2018-11-10T09:52:01.844Z,52.90
2018-11-10T09:54:30.162Z,49.60
2018-11-10T09:56:58.478Z,52.17
2018-11-10T09:59:26.719Z,36.23
2018-11-10T10:01:55.126Z,66.27
2018-11-10T10:04:25.325Z,87.90
2018-11-10T10:06:53.726Z,29.13
2018-11-10T10:09:22.063Z,28.30
2018-11-10T10:11:50.403Z,24.50
2018-11-10T10:14:18.708Z,32.43
2018-11-10T10:16:47.022Z,30.80
2018-11-10T10:19:15.288Z,22.03
2018-11-10T10:21:43.644Z,21.07
2018-11-10T10:24:12.016Z,23.30
2018-11-10T10:26:40.353Z,24.03
2018-11-10T10:29:09.058Z,24.37
2018-11-10T10:31:37.264Z,21.40
2018-11-10T10:34:05.783Z,22.40
2018-11-10T10:36:33.996Z,19.23
2018-11-10T10:39:02.339Z,21.17
2018-11-10T10:41:30.682Z,19.90
2018-11-10T10:43:58.997Z,18.57
2018-11-10T10:46:27.344Z,19.33
2018-11-10T10:48:56.384Z,20.40
2018-11-10T10:51:24.524Z,22.40
2018-11-10T10:53:52.835Z,25.43
2018-11-10T10:56:21.184Z,27.03
2018-11-10T10:58:49.503Z,23.00
2018-11-10T11:01:23.108Z,24.57
2018-11-10T11:03:56.843Z,25.10
2018-11-10T11:06:25.267Z,24.60
2018-11-10T11:08:53.608Z,24.30
2018-11-10T11:11:21.859Z,22.30
2018-11-10T11:13:50.200Z,23.80
2018-11-10T11:16:18.762Z,20.67
2018-11-10T11:18:47.064Z,23.10
2018-11-10T11:21:15.391Z,22.30
2018-11-10T11:23:43.716Z,30.70
2018-11-10T11:26:12.037Z,26.37
2018-11-10T11:28:40.319Z,19.43
2018-11-10T11:31:08.690Z,25.27
2018-11-10T11:33:37.024Z,29.43
2018-11-10T11:36:05.404Z,26.23
2018-11-10T11:38:33.703Z,25.73
2018-11-10T11:41:02.116Z,30.17
2018-11-10T11:43:35.100Z,18.83
2018-11-10T11:46:03.743Z,20.07
2018-11-10T11:48:32.552Z,23.73
2018-11-10T11:51:01.091Z,19.67
2018-11-10T11:53:29.451Z,25.40
2018-11-10T11:55:57.691Z,23.67
2018-11-10T11:58:26.124Z,22.20
2018-11-10T12:01:12.828Z,18.23
2018-11-10T12:03:41.252Z,22.53
2018-11-10T12:06:09.554Z,22.17
2018-11-10T12:08:37.866Z,19.70
2018-11-10T12:11:06.231Z,21.80
2018-11-10T12:13:40.335Z,20.87
2018-11-10T12:16:08.600Z,19.37
2018-11-10T12:18:37.033Z,20.77
2018-11-10T12:21:05.675Z,20.93
2018-11-10T12:23:33.969Z,19.90
2018-11-10T12:26:02.584Z,19.57
2018-11-10T12:28:32.970Z,20.03
2018-11-10T12:31:01.265Z,20.27
2018-11-10T12:33:29.594Z,22.50
2018-11-10T12:35:57.948Z,22.07
2018-11-10T12:38:26.281Z,25.00
2018-11-10T12:40:54.564Z,21.00
2018-11-10T12:43:22.867Z,23.60
2018-11-10T12:45:51.184Z,22.63
2018-11-10T12:48:19.539Z,21.00
2018-11-10T12:50:47.855Z,19.50
2018-11-10T12:53:16.165Z,19.50
2018-11-10T12:55:44.465Z,16.27
2018-11-10T12:58:12.821Z,20.33
2018-11-10T13:00:52.222Z,23.50
2018-11-10T13:03:20.524Z,17.97
2018-11-10T13:05:48.798Z,19.47
2018-11-10T13:08:17.202Z,18.67
2018-11-10T13:10:45.450Z,15.97
2018-11-10T13:13:14.816Z,17.40
2018-11-10T13:15:44.000Z,15.70
2018-11-10T13:18:12.321Z,16.07
2018-11-10T13:20:40.614Z,16.03
2018-11-10T13:23:08.883Z,15.13
2018-11-10T13:25:37.150Z,13.17
2018-11-10T13:28:05.589Z,14.67
2018-11-10T13:30:33.890Z,13.50
2018-11-10T13:33:02.241Z,12.80
2018-11-10T13:35:30.524Z,12.27
2018-11-10T13:37:58.891Z,12.93
2018-11-10T13:40:27.102Z,14.03
2018-11-10T13:42:56.492Z,13.47
2018-11-10T13:45:24.763Z,13.87
2018-11-10T13:47:53.042Z,15.60
2018-11-10T13:50:21.332Z,15.70
2018-11-10T13:52:50.057Z,13.03
2018-11-10T13:55:17.975Z,13.17
2018-11-10T13:57:46.348Z,13.23
2018-11-10T14:00:18.127Z,15.40
2018-11-10T14:02:46.426Z,13.60
2018-11-10T14:05:14.989Z,12.30
2018-11-10T14:07:43.314Z,13.93
2018-11-10T14:10:13.048Z,14.43
2018-11-10T14:12:42.274Z,16.00
2018-11-10T14:15:11.514Z,13.83
2018-11-10T14:17:40.678Z,13.50
2018-11-10T14:20:10.977Z,16.37
2018-11-10T14:22:39.273Z,15.53
2018-11-10T14:25:09.139Z,17.47
2018-11-10T14:27:38.189Z,15.00
2018-11-10T14:30:08.421Z,16.23
2018-11-10T14:32:36.766Z,13.87
2018-11-10T14:35:06.689Z,11.83
2018-11-10T14:37:35.107Z,15.57
2018-11-10T14:40:03.586Z,11.23
2018-11-10T14:42:31.920Z,11.73
2018-11-10T14:45:00.274Z,14.13
2018-11-10T14:47:28.581Z,11.50
2018-11-10T14:49:56.867Z,12.87
2018-11-10T14:52:25.158Z,11.70
2018-11-10T14:54:53.462Z,9.40
2018-11-10T14:57:21.725Z,12.23
2018-11-10T14:59:50.064Z,10.30
2018-11-10T15:02:18.373Z,15.13
2018-11-10T15:04:46.685Z,11.30
2018-11-10T15:07:15.014Z,11.70
2018-11-10T15:09:43.313Z,10.90
2018-11-10T15:12:17.525Z,9.10
2018-11-10T15:14:45.708Z,12.77
2018-11-10T15:17:13.973Z,13.50
2018-11-10T15:19:43.377Z,12.70
2018-11-10T15:22:11.653Z,10.77
2018-11-10T15:24:40.935Z,11.30
2018-11-10T15:27:12.339Z,11.90
2018-11-10T15:29:40.709Z,12.30
2018-11-10T15:32:09.070Z,12.07
2018-11-10T15:34:37.650Z,11.93
2018-11-10T15:37:06.311Z,9.40
2018-11-10T15:39:35.982Z,12.10
2018-11-10T15:42:05.078Z,12.00
2018-11-10T15:44:33.523Z,10.13
2018-11-10T15:47:01.899Z,8.57
2018-11-10T15:49:30.240Z,10.20
2018-11-10T15:51:58.595Z,12.73
2018-11-10T15:54:30.622Z,19.63
2018-11-10T15:56:58.963Z,12.43
2018-11-10T15:59:27.264Z,12.70
2018-11-10T16:01:55.571Z,10.60
2018-11-10T16:04:23.998Z,11.03
2018-11-10T16:06:52.351Z,11.93
2018-11-10T16:09:20.724Z,15.63
2018-11-10T16:11:48.962Z,13.90
2018-11-10T16:14:17.257Z,15.20
2018-11-10T16:16:45.537Z,13.83
2018-11-10T16:19:13.907Z,14.67
2018-11-10T16:21:42.227Z,16.20
2018-11-10T16:24:10.552Z,22.13
2018-11-10T16:26:38.858Z,14.97
2018-11-10T16:29:06.922Z,13.77
2018-11-10T16:31:35.289Z,13.60
2018-11-10T16:34:03.701Z,10.50
2018-11-10T16:36:32.005Z,11.07
2018-11-10T16:39:02.416Z,11.90
2018-11-10T16:41:30.673Z,9.67
2018-11-10T16:43:59.011Z,13.93
2018-11-10T16:46:27.350Z,34.30
2018-11-10T16:48:55.683Z,30.17
2018-11-10T16:51:24.044Z,58.30
2018-11-10T16:53:53.383Z,30.40
2018-11-10T16:56:21.793Z,31.27
2018-11-10T16:58:50.119Z,20.60
2018-11-10T17:01:18.386Z,16.83
2018-11-10T17:03:46.789Z,20.70
2018-11-10T17:06:15.122Z,15.67
2018-11-10T17:08:44.541Z,14.13
2018-11-10T17:11:13.646Z,14.20
2018-11-10T17:13:42.154Z,22.03
2018-11-10T17:16:10.312Z,22.83
2018-11-10T17:18:38.739Z,19.10
2018-11-10T17:21:07.005Z,17.50
2018-11-10T17:23:35.794Z,23.77
2018-11-10T17:26:04.273Z,23.90
2018-11-10T17:28:32.575Z,20.10
2018-11-10T17:31:00.877Z,17.30
2018-11-10T17:33:29.233Z,20.00
2018-11-10T17:35:57.607Z,20.20
2018-11-10T17:38:25.948Z,20.30
2018-11-10T17:40:54.277Z,24.97
2018-11-10T17:43:22.655Z,22.83
2018-11-10T17:45:51.057Z,19.47
2018-11-10T17:48:19.470Z,25.10
2018-11-10T17:50:47.767Z,27.07
2018-11-10T17:53:16.220Z,30.77
2018-11-10T17:55:44.580Z,25.17
2018-11-10T17:58:12.957Z,28.60
2018-11-10T18:00:41.334Z,30.50
2018-11-10T18:03:09.682Z,27.17
2018-11-10T18:05:38.007Z,28.47
2018-11-10T18:08:06.808Z,37.93
2018-11-10T18:10:35.138Z,31.13
2018-11-10T18:13:05.559Z,31.47
2018-11-10T18:15:33.864Z,32.90
2018-11-10T18:18:02.217Z,29.63
2018-11-10T18:20:30.604Z,27.90
2018-11-10T18:22:58.968Z,31.37
2018-11-10T18:25:27.414Z,23.87
2018-11-10T18:27:55.701Z,27.73
2018-11-10T18:30:23.971Z,27.83
2018-11-10T18:32:52.322Z,35.20
2018-11-10T18:35:20.661Z,32.90
2018-11-10T18:37:48.992Z,26.80
2018-11-10T18:40:17.323Z,28.33
2018-11-10T18:42:45.643Z,28.60
2018-11-10T18:45:13.975Z,37.37
2018-11-10T18:47:42.734Z,49.53
2018-11-10T18:50:14.945Z,36.97
2018-11-10T18:52:43.260Z,30.37
2018-11-10T18:55:12.208Z,24.00
2018-11-10T18:57:40.796Z,27.40
2018-11-10T19:00:11.196Z,23.80
2018-11-10T19:02:39.747Z,21.27
2018-11-10T19:05:09.232Z,25.40
2018-11-10T19:07:37.678Z,23.70
2018-11-10T19:10:07.761Z,28.40
2018-11-10T19:12:36.108Z,23.00
2018-11-10T19:15:04.803Z,25.70
2018-11-10T19:17:33.125Z,23.73
2018-11-10T19:20:01.450Z,22.50
2018-11-10T19:22:29.766Z,26.20
2018-11-10T19:24:58.135Z,24.40
2018-11-10T19:27:26.417Z,25.10
2018-11-10T19:29:54.878Z,20.90
2018-11-10T19:32:23.256Z,28.53
2018-11-10T19:34:51.477Z,23.43
2018-11-10T19:37:19.768Z,27.33
2018-11-10T19:39:48.026Z,52.27
2018-11-10T19:42:16.302Z,39.73
2018-11-10T19:44:44.685Z,30.20
2018-11-10T19:47:13.120Z,29.07
2018-11-10T19:49:41.443Z,25.37
2018-11-10T19:52:10.075Z,26.10
2018-11-10T19:54:38.090Z,25.90
2018-11-10T19:57:07.513Z,23.17
2018-11-10T19:59:35.850Z,22.03
2018-11-10T20:02:04.185Z,24.70
2018-11-10T20:04:32.555Z,22.77
2018-11-10T20:07:00.848Z,23.73
2018-11-10T20:09:29.234Z,28.50
2018-11-10T20:11:57.553Z,27.20
2018-11-10T20:14:25.955Z,24.33
2018-11-10T20:16:54.366Z,26.13
2018-11-10T20:19:22.777Z,22.90
2018-11-10T20:21:51.055Z,20.70
2018-11-10T20:24:19.362Z,23.23
2018-11-10T20:26:47.651Z,22.37
2018-11-10T20:29:16.084Z,21.07
2018-11-10T20:31:44.365Z,21.57
2018-11-10T20:34:12.727Z,23.80
2018-11-10T20:36:41.051Z,20.80
2018-11-10T20:39:10.220Z,24.57
2018-11-10T20:41:38.936Z,25.37
2018-11-10T20:44:07.807Z,23.40
2018-11-10T20:46:36.133Z,20.60
2018-11-10T20:49:04.747Z,24.90
2018-11-10T20:51:33.085Z,23.67
2018-11-10T20:54:01.393Z,23.90
2018-11-10T20:56:29.739Z,21.10
2018-11-10T20:58:58.051Z,18.00
2018-11-10T21:01:26.368Z,21.47
2018-11-10T21:03:54.781Z,24.20
2018-11-10T21:06:23.081Z,20.83
2018-11-10T21:08:51.415Z,21.53
2018-11-10T21:11:19.826Z,19.50
2018-11-10T21:13:48.220Z,19.23
2018-11-10T21:16:16.644Z,32.47
2018-11-10T21:18:44.965Z,19.93
2018-11-10T21:21:13.295Z,21.20
2018-11-10T21:23:41.562Z,25.50
2018-11-10T21:26:09.931Z,20.57
2018-11-10T21:28:38.256Z,24.83
2018-11-10T21:31:06.533Z,23.27
2018-11-10T21:33:34.919Z,21.03
2018-11-10T21:36:03.139Z,20.47
2018-11-10T21:38:31.532Z,24.17
2018-11-10T21:40:59.887Z,24.17
2018-11-10T21:43:28.225Z,28.97
2018-11-10T21:45:56.478Z,23.60
2018-11-10T21:48:24.819Z,24.53
2018-11-10T21:50:53.100Z,22.27
2018-11-10T21:53:21.421Z,19.63
2018-11-10T21:55:49.674Z,19.83
2018-11-10T21:58:18.066Z,18.73
2018-11-10T22:00:46.392Z,19.30
2018-11-10T22:03:14.669Z,20.13
2018-11-10T22:05:42.941Z,20.73
2018-11-10T22:08:11.305Z,23.37
2018-11-10T22:10:39.622Z,22.87
2018-11-10T22:13:07.944Z,24.00
2018-11-10T22:15:37.393Z,24.40
2018-11-10T22:18:05.658Z,22.40
2018-11-10T22:20:33.980Z,21.13
2018-11-10T22:23:02.365Z,20.47
2018-11-10T22:25:30.637Z,18.87
2018-11-10T22:27:58.938Z,21.63
2018-11-10T22:30:27.275Z,19.50
2018-11-10T22:32:55.618Z,23.00
2018-11-10T22:35:24.003Z,20.00
2018-11-10T22:37:52.246Z,19.30
2018-11-10T22:40:21.625Z,19.93
2018-11-10T22:42:49.971Z,20.67
2018-11-10T22:45:19.686Z,26.27
2018-11-10T22:47:48.103Z,35.03
2018-11-10T22:50:18.808Z,29.90
2018-11-10T22:52:47.131Z,23.20
2018-11-10T22:55:15.437Z,26.20
2018-11-10T22:57:43.738Z,31.20
2018-11-10T23:00:15.928Z,28.40
2018-11-10T23:02:46.207Z,24.90
2018-11-10T23:05:14.734Z,28.30
2018-11-10T23:07:43.018Z,23.80
2018-11-10T23:10:11.584Z,22.80
2018-11-10T23:12:39.951Z,23.60
2018-11-10T23:15:08.329Z,22.80
2018-11-10T23:17:36.657Z,20.73
2018-11-10T23:20:06.400Z,20.90
2018-11-10T23:22:35.047Z,22.97
2018-11-10T23:25:03.476Z,18.70
2018-11-10T23:27:31.950Z,17.93
2018-11-10T23:30:00.373Z,18.73
2018-11-10T23:32:28.765Z,18.97
2018-11-10T23:34:57.130Z,21.03
2018-11-10T23:37:25.409Z,19.37
2018-11-10T23:39:53.698Z,16.97
2018-11-10T23:42:21.989Z,15.43
2018-11-10T23:44:50.353Z,17.63
2018-11-10T23:47:18.731Z,17.43
2018-11-10T23:49:47.025Z,16.17
2018-11-10T23:52:15.394Z,18.80
2018-11-10T23:54:43.726Z,17.20
2018-11-10T23:57:12.042Z,19.13
2018-11-10T23:59:40.363Z,20.23
